sensor_id;sensor_type;location;lat;lon;timestamp;P1;durP1;ratioP1;P2;durP2;ratioP2
40847;SDS011;26570;50.962;5.340;2023-02-24T01:03:09;16.37;;;1.87;;
40847;SDS011;26570;50.962;5.340;2023-02-24T01:05:55;16.03;;;1.70;;
40847;SDS011;26570;50.962;5.340;2023-02-24T01:08:40;21.87;;;1.80;;
40847;SDS011;26570;50.962;5.340;2023-02-24T01:11:32;25.13;;;2.20;;
40847;SDS011;26570;50.962;5.340;2023-02-24T01:14:59;17.43;;;2.13;;
40847;SDS011;26570;50.962;5.340;2023-02-24T01:18:09;21.33;;;1.60;;
40847;SDS011;26570;50.962;5.340;2023-02-24T01:20:55;24.17;;;3.43;;
40847;SDS011;26570;50.962;5.340;2023-02-24T01:23:49;19.37;;;1.47;;
40847;SDS011;26570;50.962;5.340;2023-02-24T01:27:01;15.97;;;1.10;;
40847;SDS011;26570;50.962;5.340;2023-02-24T01:30:09;20.07;;;1.47;;
40847;SDS011;26570;50.962;5.340;2023-02-24T01:32:58;20.03;;;1.27;;
40847;SDS011;26570;50.962;5.340;2023-02-24T01:36:07;21.87;;;1.57;;
40847;SDS011;26570;50.962;5.340;2023-02-24T01:38:58;28.43;;;1.97;;
40847;SDS011;26570;50.962;5.340;2023-02-24T01:41:45;20.80;;;1.17;;
40847;SDS011;26570;50.962;5.340;2023-02-24T01:47:44;20.70;;;1.17;;
40847;SDS011;26570;50.962;5.340;2023-02-24T01:50:30;31.00;;;1.80;;
40847;SDS011;26570;50.962;5.340;2023-02-24T01:53:21;30.03;;;1.10;;
40847;SDS011;26570;50.962;5.340;2023-02-24T01:56:06;33.17;;;1.37;;
40847;SDS011;26570;50.962;5.340;2023-02-24T01:58:52;28.50;;;1.30;;
40847;SDS011;26570;50.962;5.340;2023-02-24T02:02:01;21.60;;;2.20;;
40847;SDS011;26570;50.962;5.340;2023-02-24T02:05:17;32.77;;;1.67;;
40847;SDS011;26570;50.962;5.340;2023-02-24T02:08:07;31.20;;;1.70;;
40847;SDS011;26570;50.962;5.340;2023-02-24T02:10:53;31.93;;;1.57;;
40847;SDS011;26570;50.962;5.340;2023-02-24T02:13:42;24.47;;;2.17;;
40847;SDS011;26570;50.962;5.340;2023-02-24T02:27:27;27.87;;;2.07;;
40847;SDS011;26570;50.962;5.340;2023-02-24T02:30:37;30.67;;;1.83;;
40847;SDS011;26570;50.962;5.340;2023-02-24T02:36:57;21.70;;;1.45;;
40847;SDS011;26570;50.962;5.340;2023-02-24T02:46:07;30.77;;;1.60;;
40847;SDS011;26570;50.962;5.340;2023-02-24T02:49:23;30.97;;;1.67;;
40847;SDS011;26570;50.962;5.340;2023-02-24T02:53:06;23.03;;;1.27;;
40847;SDS011;26570;50.962;5.340;2023-02-24T02:56:09;25.73;;;2.17;;
40847;SDS011;26570;50.962;5.340;2023-02-24T02:59:28;34.77;;;1.30;;
40847;SDS011;26570;50.962;5.340;2023-02-24T03:02:17;25.40;;;1.40;;
40847;SDS011;26570;50.962;5.340;2023-02-24T03:05:13;34.27;;;1.60;;
40847;SDS011;26570;50.962;5.340;2023-02-24T03:08:03;30.70;;;1.60;;
40847;SDS011;26570;50.962;5.340;2023-02-24T03:11:17;27.10;;;1.90;;
40847;SDS011;26570;50.962;5.340;2023-02-24T03:14:06;33.80;;;2.90;;
40847;SDS011;26570;50.962;5.340;2023-02-24T03:16:58;33.50;;;1.73;;
40847;SDS011;26570;50.962;5.340;2023-02-24T03:19:43;33.50;;;1.67;;
40847;SDS011;26570;50.962;5.340;2023-02-24T03:23:03;22.13;;;1.30;;
40847;SDS011;26570;50.962;5.340;2023-02-24T03:28:56;30.30;;;1.47;;
40847;SDS011;26570;50.962;5.340;2023-02-24T03:37:55;37.57;;;1.57;;
40847;SDS011;26570;50.962;5.340;2023-02-24T03:40:42;29.87;;;2.53;;
40847;SDS011;26570;50.962;5.340;2023-02-24T03:43:29;30.53;;;1.70;;
40847;SDS011;26570;50.962;5.340;2023-02-24T03:46:18;28.47;;;1.60;;
40847;SDS011;26570;50.962;5.340;2023-02-24T03:49:07;23.97;;;1.70;;
40847;SDS011;26570;50.962;5.340;2023-02-24T03:52:07;26.67;;;1.87;;
40847;SDS011;26570;50.962;5.340;2023-02-24T04:10:51;21.07;;;1.87;;
40847;SDS011;26570;50.962;5.340;2023-02-24T04:13:46;21.50;;;1.60;;
40847;SDS011;26570;50.962;5.340;2023-02-24T04:16:44;25.43;;;1.93;;
40847;SDS011;26570;50.962;5.340;2023-02-24T04:19:44;42.07;;;1.93;;
40847;SDS011;26570;50.962;5.340;2023-02-24T04:22:35;33.43;;;1.80;;
40847;SDS011;26570;50.962;5.340;2023-02-24T04:25:22;25.80;;;1.87;;
40847;SDS011;26570;50.962;5.340;2023-02-24T04:28:09;28.77;;;1.90;;
40847;SDS011;26570;50.962;5.340;2023-02-24T04:30:58;29.10;;;2.30;;
40847;SDS011;26570;50.962;5.340;2023-02-24T04:33:49;29.97;;;1.63;;
40847;SDS011;26570;50.962;5.340;2023-02-24T04:36:36;27.67;;;1.80;;
40847;SDS011;26570;50.962;5.340;2023-02-24T04:39:21;37.33;;;2.03;;
40847;SDS011;26570;50.962;5.340;2023-02-24T04:42:07;26.07;;;3.20;;
40847;SDS011;26570;50.962;5.340;2023-02-24T04:44:52;25.53;;;1.93;;
40847;SDS011;26570;50.962;5.340;2023-02-24T04:47:37;27.60;;;2.00;;
40847;SDS011;26570;50.962;5.340;2023-02-24T04:50:27;21.47;;;1.37;;
40847;SDS011;26570;50.962;5.340;2023-02-24T04:53:37;27.80;;;1.57;;
40847;SDS011;26570;50.962;5.340;2023-02-24T04:56:23;24.23;;;1.50;;
40847;SDS011;26570;50.962;5.340;2023-02-24T04:59:31;31.93;;;2.00;;
40847;SDS011;26570;50.962;5.340;2023-02-24T05:02:18;30.13;;;1.50;;
40847;SDS011;26570;50.962;5.340;2023-02-24T05:05:05;22.40;;;1.00;;
40847;SDS011;26570;50.962;5.340;2023-02-24T05:07:52;14.77;;;1.40;;
40847;SDS011;26570;50.962;5.340;2023-02-24T05:10:40;21.17;;;1.10;;
40847;SDS011;26570;50.962;5.340;2023-02-24T05:13:30;16.87;;;1.00;;
40847;SDS011;26570;50.962;5.340;2023-02-24T05:16:20;20.50;;;1.60;;
40847;SDS011;26570;50.962;5.340;2023-02-24T05:19:05;23.00;;;2.77;;
40847;SDS011;26570;50.962;5.340;2023-02-24T05:22:09;28.03;;;1.03;;
40847;SDS011;26570;50.962;5.340;2023-02-24T05:25:01;29.10;;;1.40;;
40847;SDS011;26570;50.962;5.340;2023-02-24T05:27:47;16.37;;;1.20;;
40847;SDS011;26570;50.962;5.340;2023-02-24T05:30:32;22.10;;;1.30;;
40847;SDS011;26570;50.962;5.340;2023-02-24T05:33:17;31.50;;;1.87;;
40847;SDS011;26570;50.962;5.340;2023-02-24T05:36:06;19.67;;;1.30;;
40847;SDS011;26570;50.962;5.340;2023-02-24T05:38:53;16.93;;;1.07;;
40847;SDS011;26570;50.962;5.340;2023-02-24T05:41:44;12.63;;;1.50;;
40847;SDS011;26570;50.962;5.340;2023-02-24T05:44:54;21.97;;;1.53;;
40847;SDS011;26570;50.962;5.340;2023-02-24T05:47:39;23.10;;;2.13;;
40847;SDS011;26570;50.962;5.340;2023-02-24T05:50:30;18.43;;;1.07;;
40847;SDS011;26570;50.962;5.340;2023-02-24T05:53:38;20.47;;;1.37;;
40847;SDS011;26570;50.962;5.340;2023-02-24T05:56:26;21.53;;;1.67;;
40847;SDS011;26570;50.962;5.340;2023-02-24T05:59:11;26.17;;;1.73;;
40847;SDS011;26570;50.962;5.340;2023-02-24T06:02:03;13.03;;;1.20;;
40847;SDS011;26570;50.962;5.340;2023-02-24T06:05:15;15.60;;;1.10;;
40847;SDS011;26570;50.962;5.340;2023-02-24T06:08:09;25.80;;;1.27;;
40847;SDS011;26570;50.962;5.340;2023-02-24T06:10:56;16.73;;;1.00;;
40847;SDS011;26570;50.962;5.340;2023-02-24T06:13:43;14.67;;;1.47;;
40847;SDS011;26570;50.962;5.340;2023-02-24T06:16:30;17.43;;;1.47;;
40847;SDS011;26570;50.962;5.340;2023-02-24T06:19:19;26.17;;;3.60;;
40847;SDS011;26570;50.962;5.340;2023-02-24T06:22:04;23.33;;;2.43;;
40847;SDS011;26570;50.962;5.340;2023-02-24T06:24:54;32.13;;;3.27;;
40847;SDS011;26570;50.962;5.340;2023-02-24T06:27:40;26.57;;;2.73;;
40847;SDS011;26570;50.962;5.340;2023-02-24T06:30:26;22.23;;;1.43;;
40847;SDS011;26570;50.962;5.340;2023-02-24T06:33:11;24.93;;;2.40;;
40847;SDS011;26570;50.962;5.340;2023-02-24T06:35:58;16.93;;;2.30;;
40847;SDS011;26570;50.962;5.340;2023-02-24T06:38:43;26.53;;;2.13;;
40847;SDS011;26570;50.962;5.340;2023-02-24T06:41:29;24.50;;;2.40;;
40847;SDS011;26570;50.962;5.340;2023-02-24T06:44:38;18.40;;;1.87;;
40847;SDS011;26570;50.962;5.340;2023-02-24T06:47:24;27.43;;;3.60;;
40847;SDS011;26570;50.962;5.340;2023-02-24T06:50:13;32.93;;;3.30;;
40847;SDS011;26570;50.962;5.340;2023-02-24T06:53:20;31.83;;;3.70;;
40847;SDS011;26570;50.962;5.340;2023-02-24T06:56:07;25.67;;;3.33;;
40847;SDS011;26570;50.962;5.340;2023-02-24T06:59:01;37.07;;;5.07;;
40847;SDS011;26570;50.962;5.340;2023-02-24T07:01:47;37.97;;;5.93;;
40847;SDS011;26570;50.962;5.340;2023-02-24T07:04:33;37.37;;;5.50;;
40847;SDS011;26570;50.962;5.340;2023-02-24T07:07:49;31.70;;;4.90;;
40847;SDS011;26570;50.962;5.340;2023-02-24T07:10:57;27.97;;;4.57;;
40847;SDS011;26570;50.962;5.340;2023-02-24T07:14:06;27.20;;;4.97;;
40847;SDS011;26570;50.962;5.340;2023-02-24T07:16:52;37.47;;;4.67;;
40847;SDS011;26570;50.962;5.340;2023-02-24T07:19:38;42.40;;;4.77;;
40847;SDS011;26570;50.962;5.340;2023-02-24T07:22:23;26.67;;;4.20;;
40847;SDS011;26570;50.962;5.340;2023-02-24T07:25:08;28.73;;;4.40;;
40847;SDS011;26570;50.962;5.340;2023-02-24T07:28:14;25.43;;;3.63;;
40847;SDS011;26570;50.962;5.340;2023-02-24T07:31:04;34.20;;;5.00;;
40847;SDS011;26570;50.962;5.340;2023-02-24T07:33:52;24.73;;;4.20;;
40847;SDS011;26570;50.962;5.340;2023-02-24T07:36:39;26.33;;;3.57;;
40847;SDS011;26570;50.962;5.340;2023-02-24T07:39:33;32.93;;;5.20;;
40847;SDS011;26570;50.962;5.340;2023-02-24T07:42:20;27.67;;;5.23;;
40847;SDS011;26570;50.962;5.340;2023-02-24T07:45:06;31.07;;;4.97;;
40847;SDS011;26570;50.962;5.340;2023-02-24T07:48:13;27.20;;;5.00;;
40847;SDS011;26570;50.962;5.340;2023-02-24T07:50:58;29.60;;;5.03;;
40847;SDS011;26570;50.962;5.340;2023-02-24T07:53:47;31.77;;;4.83;;
40847;SDS011;26570;50.962;5.340;2023-02-24T07:56:34;37.73;;;5.50;;
40847;SDS011;26570;50.962;5.340;2023-02-24T07:59:30;37.13;;;4.83;;
40847;SDS011;26570;50.962;5.340;2023-02-24T08:02:45;34.07;;;6.43;;
40847;SDS011;26570;50.962;5.340;2023-02-24T08:05:32;32.00;;;5.80;;
40847;SDS011;26570;50.962;5.340;2023-02-24T08:08:17;30.67;;;5.80;;
40847;SDS011;26570;50.962;5.340;2023-02-24T08:11:04;33.73;;;5.97;;
40847;SDS011;26570;50.962;5.340;2023-02-24T08:13:53;25.37;;;6.50;;
40847;SDS011;26570;50.962;5.340;2023-02-24T08:16:44;31.47;;;5.03;;
40847;SDS011;26570;50.962;5.340;2023-02-24T08:19:54;27.67;;;4.97;;
40847;SDS011;26570;50.962;5.340;2023-02-24T08:23:55;25.67;;;2.67;;
40847;SDS011;26570;50.962;5.340;2023-02-24T08:26:46;25.77;;;3.20;;
40847;SDS011;26570;50.962;5.340;2023-02-24T08:30:08;27.10;;;3.63;;
40847;SDS011;26570;50.962;5.340;2023-02-24T08:33:08;23.90;;;3.43;;
40847;SDS011;26570;50.962;5.340;2023-02-24T08:35:54;25.43;;;2.93;;
40847;SDS011;26570;50.962;5.340;2023-02-24T08:38:48;27.70;;;3.10;;
40847;SDS011;26570;50.962;5.340;2023-02-24T08:41:34;30.37;;;3.10;;
40847;SDS011;26570;50.962;5.340;2023-02-24T08:44:34;28.23;;;4.93;;
40847;SDS011;26570;50.962;5.340;2023-02-24T08:47:20;23.10;;;3.50;;
40847;SDS011;26570;50.962;5.340;2023-02-24T08:50:37;25.50;;;3.67;;
40847;SDS011;26570;50.962;5.340;2023-02-24T08:53:51;26.67;;;3.40;;
40847;SDS011;26570;50.962;5.340;2023-02-24T08:56:37;30.80;;;3.43;;
40847;SDS011;26570;50.962;5.340;2023-02-24T08:59:26;24.50;;;2.63;;
40847;SDS011;26570;50.962;5.340;2023-02-24T09:02:20;24.67;;;3.38;;
40847;SDS011;26570;50.962;5.340;2023-02-24T09:05:12;18.63;;;2.67;;
40847;SDS011;26570;50.962;5.340;2023-02-24T09:07:57;19.83;;;2.93;;
40847;SDS011;26570;50.962;5.340;2023-02-24T09:10:43;27.87;;;3.10;;
40847;SDS011;26570;50.962;5.340;2023-02-24T09:13:29;20.80;;;3.17;;
40847;SDS011;26570;50.962;5.340;2023-02-24T09:16:20;21.93;;;2.87;;
40847;SDS011;26570;50.962;5.340;2023-02-24T09:19:06;18.53;;;2.60;;
40847;SDS011;26570;50.962;5.340;2023-02-24T09:22:09;17.13;;;3.03;;
40847;SDS011;26570;50.962;5.340;2023-02-24T09:28:05;23.17;;;2.60;;
40847;SDS011;26570;50.962;5.340;2023-02-24T09:30:53;17.53;;;2.93;;
40847;SDS011;26570;50.962;5.340;2023-02-24T09:33:43;22.40;;;1.60;;
40847;SDS011;26570;50.962;5.340;2023-02-24T09:36:34;16.27;;;1.80;;
40847;SDS011;26570;50.962;5.340;2023-02-24T09:39:29;18.63;;;1.70;;
40847;SDS011;26570;50.962;5.340;2023-02-24T09:42:13;17.50;;;1.97;;
40847;SDS011;26570;50.962;5.340;2023-02-24T09:45:20;12.23;;;1.60;;
40847;SDS011;26570;50.962;5.340;2023-02-24T09:48:37;13.93;;;1.10;;
40847;SDS011;26570;50.962;5.340;2023-02-24T09:51:29;11.43;;;0.97;;
40847;SDS011;26570;50.962;5.340;2023-02-24T09:54:48;15.00;;;1.07;;
40847;SDS011;26570;50.962;5.340;2023-02-24T09:57:57;20.10;;;1.23;;
40847;SDS011;26570;50.962;5.340;2023-02-24T10:04:33;16.77;;;1.27;;
40847;SDS011;26570;50.962;5.340;2023-02-24T10:07:33;17.05;;;1.52;;
40847;SDS011;26570;50.962;5.340;2023-02-24T10:10:50;32.50;;;1.83;;
40847;SDS011;26570;50.962;5.340;2023-02-24T10:13:53;14.83;;;0.87;;
40847;SDS011;26570;50.962;5.340;2023-02-24T10:16:48;14.23;;;2.30;;
40847;SDS011;26570;50.962;5.340;2023-02-24T10:23:18;14.53;;;1.10;;
40847;SDS011;26570;50.962;5.340;2023-02-24T10:26:55;14.33;;;1.47;;
40847;SDS011;26570;50.962;5.340;2023-02-24T10:30:01;20.48;;;1.85;;
40847;SDS011;26570;50.962;5.340;2023-02-24T10:32:55;16.47;;;1.00;;
40847;SDS011;26570;50.962;5.340;2023-02-24T10:35:43;16.40;;;1.57;;
40847;SDS011;26570;50.962;5.340;2023-02-24T10:38:31;15.90;;;1.00;;
40847;SDS011;26570;50.962;5.340;2023-02-24T10:41:17;14.13;;;0.90;;
40847;SDS011;26570;50.962;5.340;2023-02-24T10:44:18;16.07;;;0.87;;
40847;SDS011;26570;50.962;5.340;2023-02-24T10:47:23;17.60;;;0.97;;
40847;SDS011;26570;50.962;5.340;2023-02-24T10:50:41;21.07;;;1.40;;
40847;SDS011;26570;50.962;5.340;2023-02-24T10:53:27;21.23;;;1.17;;
40847;SDS011;26570;50.962;5.340;2023-02-24T10:56:21;15.80;;;1.45;;
40847;SDS011;26570;50.962;5.340;2023-02-24T10:59:44;14.77;;;1.17;;
40847;SDS011;26570;50.962;5.340;2023-02-24T11:02:56;17.47;;;1.13;;
40847;SDS011;26570;50.962;5.340;2023-02-24T11:05:51;16.87;;;1.93;;
40847;SDS011;26570;50.962;5.340;2023-02-24T11:08:55;15.40;;;1.53;;
40847;SDS011;26570;50.962;5.340;2023-02-24T11:12:05;15.83;;;1.30;;
40847;SDS011;26570;50.962;5.340;2023-02-24T11:15:20;17.80;;;1.33;;
40847;SDS011;26570;50.962;5.340;2023-02-24T11:18:51;11.02;;;1.50;;
40847;SDS011;26570;50.962;5.340;2023-02-24T11:21:38;23.63;;;1.70;;
40847;SDS011;26570;50.962;5.340;2023-02-24T11:24:23;16.23;;;1.57;;
40847;SDS011;26570;50.962;5.340;2023-02-24T11:27:14;11.30;;;0.80;;
40847;SDS011;26570;50.962;5.340;2023-02-24T11:37:08;8.80;;;0.70;;
40847;SDS011;26570;50.962;5.340;2023-02-24T11:46:08;10.48;;;0.75;;
40847;SDS011;26570;50.962;5.340;2023-02-24T11:49:08;10.27;;;1.00;;
40847;SDS011;26570;50.962;5.340;2023-02-24T11:52:05;11.17;;;0.80;;
40847;SDS011;26570;50.962;5.340;2023-02-24T11:55:02;14.47;;;0.70;;
40847;SDS011;26570;50.962;5.340;2023-02-24T11:57:57;12.07;;;0.90;;
40847;SDS011;26570;50.962;5.340;2023-02-24T12:01:09;17.40;;;1.20;;
40847;SDS011;26570;50.962;5.340;2023-02-24T12:07:17;7.40;;;0.90;;
40847;SDS011;26570;50.962;5.340;2023-02-24T12:10:28;13.63;;;1.00;;
40847;SDS011;26570;50.962;5.340;2023-02-24T12:13:41;14.07;;;1.00;;
40847;SDS011;26570;50.962;5.340;2023-02-24T12:16:38;13.13;;;0.97;;
40847;SDS011;26570;50.962;5.340;2023-02-24T12:19:33;12.13;;;1.05;;
40847;SDS011;26570;50.962;5.340;2023-02-24T12:22:36;14.23;;;1.33;;
40847;SDS011;26570;50.962;5.340;2023-02-24T12:25:31;10.80;;;1.00;;
40847;SDS011;26570;50.962;5.340;2023-02-24T12:41:18;8.87;;;0.90;;
40847;SDS011;26570;50.962;5.340;2023-02-24T12:54:14;13.67;;;1.17;;
40847;SDS011;26570;50.962;5.340;2023-02-24T12:57:13;9.10;;;0.93;;
40847;SDS011;26570;50.962;5.340;2023-02-24T13:00:07;12.83;;;0.90;;
40847;SDS011;26570;50.962;5.340;2023-02-24T13:18:23;14.57;;;1.47;;
40847;SDS011;26570;50.962;5.340;2023-02-24T13:21:23;10.23;;;1.77;;
40847;SDS011;26570;50.962;5.340;2023-02-24T13:24:19;14.40;;;1.77;;
40847;SDS011;26570;50.962;5.340;2023-02-24T13:27:40;9.60;;;1.63;;
40847;SDS011;26570;50.962;5.340;2023-02-24T13:30:34;14.87;;;1.00;;
40847;SDS011;26570;50.962;5.340;2023-02-24T13:33:28;12.77;;;1.17;;
40847;SDS011;26570;50.962;5.340;2023-02-24T13:36:32;8.87;;;1.60;;
40847;SDS011;26570;50.962;5.340;2023-02-24T13:39:31;15.70;;;2.13;;
40847;SDS011;26570;50.962;5.340;2023-02-24T13:42:27;8.83;;;1.93;;
40847;SDS011;26570;50.962;5.340;2023-02-24T13:45:41;11.00;;;1.40;;
40847;SDS011;26570;50.962;5.340;2023-02-24T13:53:07;12.83;;;1.10;;
40847;SDS011;26570;50.962;5.340;2023-02-24T13:59:28;13.27;;;1.43;;
40847;SDS011;26570;50.962;5.340;2023-02-24T14:02:43;10.63;;;1.60;;
40847;SDS011;26570;50.962;5.340;2023-02-24T14:08:58;16.10;;;2.10;;
40847;SDS011;26570;50.962;5.340;2023-02-24T14:11:27;9.77;;;1.57;;
40847;SDS011;26570;50.962;5.340;2023-02-24T14:14:18;14.70;;;2.27;;
40847;SDS011;26570;50.962;5.340;2023-02-24T14:17:04;25.00;;;2.20;;
40847;SDS011;26570;50.962;5.340;2023-02-24T14:23:40;13.67;;;1.43;;
40847;SDS011;26570;50.962;5.340;2023-02-24T14:26:27;15.90;;;2.33;;
40847;SDS011;26570;50.962;5.340;2023-02-24T14:29:18;20.07;;;3.13;;
40847;SDS011;26570;50.962;5.340;2023-02-24T14:32:14;14.05;;;2.75;;
40847;SDS011;26570;50.962;5.340;2023-02-24T14:35:17;16.53;;;2.63;;
40847;SDS011;26570;50.962;5.340;2023-02-24T14:38:25;21.73;;;2.87;;
40847;SDS011;26570;50.962;5.340;2023-02-24T14:41:18;18.83;;;3.60;;
40847;SDS011;26570;50.962;5.340;2023-02-24T14:44:26;16.20;;;3.92;;
40847;SDS011;26570;50.962;5.340;2023-02-24T14:47:13;21.83;;;5.17;;
40847;SDS011;26570;50.962;5.340;2023-02-24T14:49:59;16.40;;;5.00;;
40847;SDS011;26570;50.962;5.340;2023-02-24T14:52:52;17.90;;;4.43;;
40847;SDS011;26570;50.962;5.340;2023-02-24T14:55:50;14.47;;;3.50;;
40847;SDS011;26570;50.962;5.340;2023-02-24T14:58:43;20.07;;;4.60;;
40847;SDS011;26570;50.962;5.340;2023-02-24T15:01:35;12.13;;;3.57;;
40847;SDS011;26570;50.962;5.340;2023-02-24T15:04:34;19.30;;;3.90;;
40847;SDS011;26570;50.962;5.340;2023-02-24T15:07:24;21.77;;;4.30;;
40847;SDS011;26570;50.962;5.340;2023-02-24T15:10:20;17.53;;;4.67;;
40847;SDS011;26570;50.962;5.340;2023-02-24T15:13:11;19.47;;;6.27;;
40847;SDS011;26570;50.962;5.340;2023-02-24T15:16:22;19.53;;;5.43;;
40847;SDS011;26570;50.962;5.340;2023-02-24T15:19:30;15.93;;;5.37;;
40847;SDS011;26570;50.962;5.340;2023-02-24T15:22:27;20.33;;;5.90;;
40847;SDS011;26570;50.962;5.340;2023-02-24T15:25:44;28.67;;;6.70;;
40847;SDS011;26570;50.962;5.340;2023-02-24T15:28:58;16.67;;;6.70;;
40847;SDS011;26570;50.962;5.340;2023-02-24T15:31:59;18.70;;;7.35;;
40847;SDS011;26570;50.962;5.340;2023-02-24T15:35:20;19.73;;;6.20;;
40847;SDS011;26570;50.962;5.340;2023-02-24T15:38:12;15.87;;;6.30;;
40847;SDS011;26570;50.962;5.340;2023-02-24T15:41:24;16.08;;;6.28;;
40847;SDS011;26570;50.962;5.340;2023-02-24T15:44:25;21.43;;;6.47;;
40847;SDS011;26570;50.962;5.340;2023-02-24T15:47:22;18.37;;;6.60;;
40847;SDS011;26570;50.962;5.340;2023-02-24T15:50:11;22.50;;;7.53;;
40847;SDS011;26570;50.962;5.340;2023-02-24T15:52:58;18.10;;;7.90;;
40847;SDS011;26570;50.962;5.340;2023-02-24T15:55:47;19.87;;;8.07;;
40847;SDS011;26570;50.962;5.340;2023-02-24T15:58:33;21.03;;;8.43;;
40847;SDS011;26570;50.962;5.340;2023-02-24T16:01:21;16.67;;;6.97;;
40847;SDS011;26570;50.962;5.340;2023-02-24T16:04:09;18.63;;;7.50;;
40847;SDS011;26570;50.962;5.340;2023-02-24T16:10:25;20.30;;;8.13;;
40847;SDS011;26570;50.962;5.340;2023-02-24T16:13:35;19.13;;;8.80;;
40847;SDS011;26570;50.962;5.340;2023-02-24T16:16:20;22.67;;;9.77;;
40847;SDS011;26570;50.962;5.340;2023-02-24T16:19:28;24.47;;;10.07;;
40847;SDS011;26570;50.962;5.340;2023-02-24T16:22:13;27.43;;;10.93;;
40847;SDS011;26570;50.962;5.340;2023-02-24T16:24:59;31.87;;;13.37;;
40847;SDS011;26570;50.962;5.340;2023-02-24T16:27:44;27.10;;;11.40;;
40847;SDS011;26570;50.962;5.340;2023-02-24T16:30:30;29.40;;;11.80;;
40847;SDS011;26570;50.962;5.340;2023-02-24T16:33:16;42.40;;;16.37;;
40847;SDS011;26570;50.962;5.340;2023-02-24T16:36:04;32.77;;;13.33;;
40847;SDS011;26570;50.962;5.340;2023-02-24T16:38:54;25.07;;;13.70;;
40847;SDS011;26570;50.962;5.340;2023-02-24T16:41:40;28.90;;;14.83;;
40847;SDS011;26570;50.962;5.340;2023-02-24T16:44:25;29.30;;;15.17;;
40847;SDS011;26570;50.962;5.340;2023-02-24T16:47:12;27.00;;;14.57;;
40847;SDS011;26570;50.962;5.340;2023-02-24T16:50:01;34.90;;;16.13;;
40847;SDS011;26570;50.962;5.340;2023-02-24T16:52:46;35.40;;;17.53;;
40847;SDS011;26570;50.962;5.340;2023-02-24T16:55:59;37.30;;;17.40;;
40847;SDS011;26570;50.962;5.340;2023-02-24T16:58:44;32.90;;;18.23;;
40847;SDS011;26570;50.962;5.340;2023-02-24T17:01:30;32.70;;;18.87;;
40847;SDS011;26570;50.962;5.340;2023-02-24T17:04:39;44.87;;;25.10;;
40847;SDS011;26570;50.962;5.340;2023-02-24T17:07:47;67.50;;;40.57;;
40847;SDS011;26570;50.962;5.340;2023-02-24T17:10:33;126.90;;;81.07;;
40847;SDS011;26570;50.962;5.340;2023-02-24T17:13:22;116.07;;;72.27;;
40847;SDS011;26570;50.962;5.340;2023-02-24T17:16:07;93.60;;;58.03;;
40847;SDS011;26570;50.962;5.340;2023-02-24T17:18:53;83.27;;;50.97;;
40847;SDS011;26570;50.962;5.340;2023-02-24T17:21:40;67.87;;;38.50;;
40847;SDS011;26570;50.962;5.340;2023-02-24T17:24:27;61.70;;;35.77;;
40847;SDS011;26570;50.962;5.340;2023-02-24T17:27:12;46.80;;;24.30;;
40847;SDS011;26570;50.962;5.340;2023-02-24T17:30:01;40.33;;;19.87;;
40847;SDS011;26570;50.962;5.340;2023-02-24T17:32:47;40.13;;;18.07;;
40847;SDS011;26570;50.962;5.340;2023-02-24T17:35:32;31.30;;;16.50;;
40847;SDS011;26570;50.962;5.340;2023-02-24T17:38:42;37.77;;;16.07;;
40847;SDS011;26570;50.962;5.340;2023-02-24T17:42:02;33.40;;;14.87;;
40847;SDS011;26570;50.962;5.340;2023-02-24T17:44:47;33.70;;;14.63;;
40847;SDS011;26570;50.962;5.340;2023-02-24T17:48:00;39.33;;;16.93;;
40847;SDS011;26570;50.962;5.340;2023-02-24T17:50:48;32.37;;;16.20;;
40847;SDS011;26570;50.962;5.340;2023-02-24T17:53:59;38.37;;;16.03;;
40847;SDS011;26570;50.962;5.340;2023-02-24T17:56:44;37.30;;;16.10;;
40847;SDS011;26570;50.962;5.340;2023-02-24T17:59:52;44.00;;;16.50;;
40847;SDS011;26570;50.962;5.340;2023-02-24T18:02:37;34.37;;;18.57;;
40847;SDS011;26570;50.962;5.340;2023-02-24T18:05:28;38.43;;;19.00;;
40847;SDS011;26570;50.962;5.340;2023-02-24T18:08:13;42.07;;;18.00;;
40847;SDS011;26570;50.962;5.340;2023-02-24T18:11:13;40.17;;;18.42;;
40847;SDS011;26570;50.962;5.340;2023-02-24T18:14:00;45.00;;;19.10;;
40847;SDS011;26570;50.962;5.340;2023-02-24T18:16:46;34.60;;;18.77;;
40847;SDS011;26570;50.962;5.340;2023-02-24T18:19:33;38.33;;;19.53;;
40847;SDS011;26570;50.962;5.340;2023-02-24T18:22:41;44.03;;;19.37;;
40847;SDS011;26570;50.962;5.340;2023-02-24T18:25:26;41.10;;;18.77;;
40847;SDS011;26570;50.962;5.340;2023-02-24T18:28:12;48.90;;;19.37;;
40847;SDS011;26570;50.962;5.340;2023-02-24T18:31:10;47.35;;;18.10;;
40847;SDS011;26570;50.962;5.340;2023-02-24T18:33:58;29.57;;;15.70;;
40847;SDS011;26570;50.962;5.340;2023-02-24T18:36:44;37.67;;;11.03;;
40847;SDS011;26570;50.962;5.340;2023-02-24T18:39:32;29.30;;;9.53;;
40847;SDS011;26570;50.962;5.340;2023-02-24T18:42:18;34.67;;;10.30;;
40847;SDS011;26570;50.962;5.340;2023-02-24T18:45:04;25.53;;;8.03;;
40847;SDS011;26570;50.962;5.340;2023-02-24T18:48:12;24.13;;;5.77;;
40847;SDS011;26570;50.962;5.340;2023-02-24T18:50:57;17.37;;;4.23;;
40847;SDS011;26570;50.962;5.340;2023-02-24T18:54:03;29.03;;;3.70;;
40847;SDS011;26570;50.962;5.340;2023-02-24T18:56:49;21.83;;;3.20;;
40847;SDS011;26570;50.962;5.340;2023-02-24T18:59:34;22.87;;;3.13;;
40847;SDS011;26570;50.962;5.340;2023-02-24T19:02:19;18.40;;;3.33;;
40847;SDS011;26570;50.962;5.340;2023-02-24T19:05:05;12.93;;;1.70;;
40847;SDS011;26570;50.962;5.340;2023-02-24T19:08:00;24.87;;;2.00;;
40847;SDS011;26570;50.962;5.340;2023-02-24T19:10:54;15.88;;;1.83;;
40847;SDS011;26570;50.962;5.340;2023-02-24T19:13:40;20.67;;;3.10;;
40847;SDS011;26570;50.962;5.340;2023-02-24T19:16:54;23.73;;;1.90;;
40847;SDS011;26570;50.962;5.340;2023-02-24T19:19:59;13.87;;;2.67;;
40847;SDS011;26570;50.962;5.340;2023-02-24T19:22:48;17.50;;;1.57;;
40847;SDS011;26570;50.962;5.340;2023-02-24T19:25:35;21.63;;;1.90;;
40847;SDS011;26570;50.962;5.340;2023-02-24T19:28:21;14.27;;;2.00;;
40847;SDS011;26570;50.962;5.340;2023-02-24T19:31:10;16.53;;;1.23;;
40847;SDS011;26570;50.962;5.340;2023-02-24T19:34:03;14.90;;;2.20;;
40847;SDS011;26570;50.962;5.340;2023-02-24T19:37:01;17.27;;;2.20;;
40847;SDS011;26570;50.962;5.340;2023-02-24T19:39:47;14.20;;;2.40;;
40847;SDS011;26570;50.962;5.340;2023-02-24T19:42:56;12.57;;;0.70;;
40847;SDS011;26570;50.962;5.340;2023-02-24T19:45:42;12.13;;;1.00;;
40847;SDS011;26570;50.962;5.340;2023-02-24T19:48:28;15.20;;;3.30;;
40847;SDS011;26570;50.962;5.340;2023-02-24T19:51:14;10.63;;;0.93;;
40847;SDS011;26570;50.962;5.340;2023-02-24T19:54:33;25.53;;;2.17;;
40847;SDS011;26570;50.962;5.340;2023-02-24T19:57:21;16.87;;;0.93;;
40847;SDS011;26570;50.962;5.340;2023-02-24T20:00:07;18.80;;;0.93;;
40847;SDS011;26570;50.962;5.340;2023-02-24T20:03:04;13.30;;;0.73;;
40847;SDS011;26570;50.962;5.340;2023-02-24T20:05:55;14.17;;;1.30;;
40847;SDS011;26570;50.962;5.340;2023-02-24T20:08:40;19.20;;;1.13;;
40847;SDS011;26570;50.962;5.340;2023-02-24T20:11:26;10.80;;;0.87;;
40847;SDS011;26570;50.962;5.340;2023-02-24T20:14:39;20.93;;;2.67;;
40847;SDS011;26570;50.962;5.340;2023-02-24T20:17:27;15.63;;;2.20;;
40847;SDS011;26570;50.962;5.340;2023-02-24T20:20:12;11.47;;;0.67;;
40847;SDS011;26570;50.962;5.340;2023-02-24T20:23:28;13.83;;;0.97;;
40847;SDS011;26570;50.962;5.340;2023-02-24T20:26:17;20.77;;;1.40;;
40847;SDS011;26570;50.962;5.340;2023-02-24T20:29:03;9.53;;;0.70;;
40847;SDS011;26570;50.962;5.340;2023-02-24T20:32:13;14.67;;;1.20;;